Star Princess — ZCDD6 — position and weather

sailwx.info

Track history (hours):
 
Tides and Currents Weather Stations Pressure Air Temp Water Temp Dewpoint Dewpoint Depression Visibility Wind Speed Wind Dir Waves Ship Positions

Star Princess

Operator: Princess Cruises

Last reported at 2017-Jan-23 11:26 UTC. Time now 2017-Jan-23 12:29 UTC.
Position N 33°41' W 118°13'.

Length 289.6 m; beam 36 m; draft 8.4 m.

Type: Ship. MMSI: 310361000.

Date/timePositionNaut miles runAvg speedWind from/ knotsBaromVisibWave heightAir tempDewpointWater temp
2017-Jan-23 11:26N 33°41' W 118°13'1010.6
2017-Jan-23 10:31N 33°32' W 118°09'1111.0
2017-Jan-23 09:33N 33°22' W 118°04'3310.7
2017-Jan-23 06:26N 32°51' W 117°50'910.2
2017-Jan-23 05:33N 32°42' W 117°47'10 9.6
2017-Jan-23 04:29N 32°32' W 117°46'9 9.9
2017-Jan-23 03:33N 32°23' W 117°50'37 8.1
2017-Jan-22 23:00N 31°48' W 117°36'26 1.9 180 / 401018.6 5.4 16.012.616.0
2017-Jan-22 09:24N 32°14' W 117°31'8 9.5
2017-Jan-22 08:33N 32°21' W 117°35'1110.8
2017-Jan-22 07:33N 32°29' W 117°25'1110.8
2017-Jan-22 06:33N 32°36' W 117°16'8 8.4
2017-Jan-22 05:33N 32°43' W 117°11'0 0.5
2017-Jan-22 04:31N 32°43' W 117°10'0 0.0
2017-Jan-22 03:30N 32°43' W 117°10'0 0.0
2017-Jan-22 02:30N 32°43' W 117°10'0 0.0
2017-Jan-22 01:30N 32°43' W 117°10'0 0.0
2017-Jan-22 00:26N 32°43' W 117°10'0 0.0
2017-Jan-21 23:32N 32°43' W 117°10'0 0.0
2017-Jan-21 22:22N 32°43' W 117°10'0 0.0
2017-Jan-21 21:28N 32°43' W 117°10'0 0.0
2017-Jan-21 20:33N 32°43' W 117°10'0 0.0
2017-Jan-21 19:33N 32°43' W 117°10'0 0.0
2017-Jan-21 18:29N 32°43' W 117°10'0 0.0
2017-Jan-21 17:32N 32°43' W 117°10'0 0.0
2017-Jan-21 16:32N 32°43' W 117°10'0 0.0
2017-Jan-21 15:28N 32°43' W 117°10'0 0.0
2017-Jan-21 14:28N 32°43' W 117°10'0 0.0
2017-Jan-21 13:33N 32°43' W 117°10'0 0.0
2017-Jan-21 12:30N 32°43' W 117°10'0 0.0
2017-Jan-21 11:29N 32°43' W 117°10'0 0.0
2017-Jan-21 10:29N 32°43' W 117°10'0 0.0
2017-Jan-21 08:25N 32°43' W 117°10'0 0.0
2017-Jan-21 07:22N 32°43' W 117°10'0 0.0
2017-Jan-21 06:18N 32°43' W 117°10'0 0.0
2017-Jan-21 05:33N 32°43' W 117°10'0 0.0
2017-Jan-21 04:17N 32°43' W 117°10'0 0.0
2017-Jan-21 03:32N 32°43' W 117°10'0 0.0
2017-Jan-21 02:32N 32°43' W 117°10'0 0.0
2017-Jan-21 01:31N 32°43' W 117°10'0 0.0
2017-Jan-21 00:25N 32°43' W 117°10'0 0.0
2017-Jan-20 23:30N 32°43' W 117°10'0 0.0
2017-Jan-20 22:33N 32°43' W 117°10'0 0.0
2017-Jan-20 21:32N 32°43' W 117°10'0 0.0
2017-Jan-20 20:26N 32°43' W 117°10'0 0.0
2017-Jan-20 19:29N 32°43' W 117°10'0 0.0
2017-Jan-20 18:31N 32°43' W 117°10'0 0.0
2017-Jan-20 17:31N 32°43' W 117°10'0 0.0
2017-Jan-20 16:30N 32°43' W 117°10'0 0.0
2017-Jan-20 15:27N 32°43' W 117°10'1 1.3
2017-Jan-20 14:33N 32°43' W 117°12'9 8.6
2017-Jan-20 13:33N 32°35' W 117°15'1110.8
2017-Jan-20 12:33N 32°30' W 117°27'1110.7
2017-Jan-20 11:33N 32°25' W 117°38'1010.1
2017-Jan-20 10:34N 32°19' W 117°47'9 8.7
2017-Jan-20 09:31N 32°26' W 117°53'1010.4
2017-Jan-20 08:33N 32°36' W 117°49'1010.3
2017-Jan-20 07:33N 32°46' W 117°53'1110.7
2017-Jan-20 06:33N 32°56' W 117°57'1010.5
2017-Jan-20 05:33N 33°06' W 118°01'1010.0
2017-Jan-20 04:32N 33°15' W 118°05'1010.3
2017-Jan-20 03:33N 33°25' W 118°09'14 1.0
2017-Jan-19 12:30N 33°39' W 118°12'1212.1
2017-Jan-19 11:31N 33°28' W 118°06'1212.6
2017-Jan-19 10:33N 33°17' W 118°02'1312.8
2017-Jan-19 09:32N 33°04' W 117°56'1312.9
2017-Jan-19 08:33N 32°53' W 117°50'1313.3
2017-Jan-19 07:33N 32°40' W 117°46'1312.9
2017-Jan-19 06:33N 32°29' W 117°39'1713.0
2017-Jan-19 05:13N 32°14' W 117°28'93 4.1
2017-Jan-18 06:22N 31°05' W 118°40'10715.6
2017-Jan-17 23:30N 30°30' W 120°38'13816.2
2017-Jan-17 15:00N 29°54' W 123°12'63317.6 080 / 221023.810.8 22.319.324.3
2017-Jan-16 03:00N 26°54' W 134°42'25321.1 080 / 221023.810.8 22.319.324.3
2017-Jan-15 15:00N 26°00' W 139°18'18 6.0 080 / 221023.810.8 22.319.324.3
2017-Jan-15 12:00N 25°42' W 139°18'10225.4 130 / 251025.810.8 17.017.023.0
2017-Jan-15 08:00N 24°24' W 140°30'11322.6 130 / 251025.810.8 17.017.023.0
2017-Jan-15 03:00N 24°54' W 142°30'27418.3 130 / 251025.710.8 22.017.224.0
2017-Jan-14 12:00N 23°36' W 147°18'7017.6 130 / 351021.710.8 22.017.224.0
2017-Jan-14 08:00N 23°12' W 148°30'9719.4 130 / 101021.710.8 22.017.224.0
2017-Jan-14 03:00N 22°48' W 150°12'22618.9 130 / 101019.710.8 24.020.726.0
2017-Jan-13 15:00N 21°42' W 154°06'4615.4 130 / 101019.710.8 24.020.726.0
2017-Jan-13 12:00N 21°30' W 154°54'   130 / 101019.510.8 24.020.726.0
Track history (hours):
 
Tides and Currents Weather Stations Pressure Air Temp Water Temp Dewpoint Dewpoint Depression Visibility Wind Speed Wind Dir Waves Ship Positions

Star Princess

Operator: Princess Cruises

Last reported at 2017-Jan-23 11:26 UTC. Time now 2017-Jan-23 12:29 UTC.
Position N 33°41' W 118°13'.

Length 289.6 m; beam 36 m; draft 8.4 m.

Type: Ship. MMSI: 310361000.

Date/timePositionNaut miles runAvg speedWind from/ knotsBaromVisibWave heightAir tempDewpointWater temp
2017-Jan-23 11:26N 33°41' W 118°13'1010.6
2017-Jan-23 10:31N 33°32' W 118°09'1111.0
2017-Jan-23 09:33N 33°22' W 118°04'3310.7
2017-Jan-23 06:26N 32°51' W 117°50'910.2
2017-Jan-23 05:33N 32°42' W 117°47'10 9.6
2017-Jan-23 04:29N 32°32' W 117°46'9 9.9
2017-Jan-23 03:33N 32°23' W 117°50'37 8.1
2017-Jan-22 23:00N 31°48' W 117°36'26 1.9 180 / 401018.6 5.4 16.012.616.0
2017-Jan-22 09:24N 32°14' W 117°31'8 9.5
2017-Jan-22 08:33N 32°21' W 117°35'1110.8
2017-Jan-22 07:33N 32°29' W 117°25'1110.8
2017-Jan-22 06:33N 32°36' W 117°16'8 8.4
2017-Jan-22 05:33N 32°43' W 117°11'0 0.5
2017-Jan-22 04:31N 32°43' W 117°10'0 0.0
2017-Jan-22 03:30N 32°43' W 117°10'0 0.0
2017-Jan-22 02:30N 32°43' W 117°10'0 0.0
2017-Jan-22 01:30N 32°43' W 117°10'0 0.0
2017-Jan-22 00:26N 32°43' W 117°10'0 0.0
2017-Jan-21 23:32N 32°43' W 117°10'0 0.0
2017-Jan-21 22:22N 32°43' W 117°10'0 0.0
2017-Jan-21 21:28N 32°43' W 117°10'0 0.0
2017-Jan-21 20:33N 32°43' W 117°10'0 0.0
2017-Jan-21 19:33N 32°43' W 117°10'0 0.0
2017-Jan-21 18:29N 32°43' W 117°10'0 0.0
2017-Jan-21 17:32N 32°43' W 117°10'0 0.0
2017-Jan-21 16:32N 32°43' W 117°10'0 0.0
2017-Jan-21 15:28N 32°43' W 117°10'0 0.0
2017-Jan-21 14:28N 32°43' W 117°10'0 0.0
2017-Jan-21 13:33N 32°43' W 117°10'0 0.0
2017-Jan-21 12:30N 32°43' W 117°10'0 0.0
2017-Jan-21 11:29N 32°43' W 117°10'0 0.0
2017-Jan-21 10:29N 32°43' W 117°10'0 0.0
2017-Jan-21 08:25N 32°43' W 117°10'0 0.0
2017-Jan-21 07:22N 32°43' W 117°10'0 0.0
2017-Jan-21 06:18N 32°43' W 117°10'0 0.0
2017-Jan-21 05:33N 32°43' W 117°10'0 0.0
2017-Jan-21 04:17N 32°43' W 117°10'0 0.0
2017-Jan-21 03:32N 32°43' W 117°10'0 0.0
2017-Jan-21 02:32N 32°43' W 117°10'0 0.0
2017-Jan-21 01:31N 32°43' W 117°10'0 0.0
2017-Jan-21 00:25N 32°43' W 117°10'0 0.0
2017-Jan-20 23:30N 32°43' W 117°10'0 0.0
2017-Jan-20 22:33N 32°43' W 117°10'0 0.0
2017-Jan-20 21:32N 32°43' W 117°10'0 0.0
2017-Jan-20 20:26N 32°43' W 117°10'0 0.0
2017-Jan-20 19:29N 32°43' W 117°10'0 0.0
2017-Jan-20 18:31N 32°43' W 117°10'0 0.0
2017-Jan-20 17:31N 32°43' W 117°10'0 0.0
2017-Jan-20 16:30N 32°43' W 117°10'0 0.0
2017-Jan-20 15:27N 32°43' W 117°10'1 1.3
2017-Jan-20 14:33N 32°43' W 117°12'9 8.6
2017-Jan-20 13:33N 32°35' W 117°15'1110.8
2017-Jan-20 12:33N 32°30' W 117°27'1110.7
2017-Jan-20 11:33N 32°25' W 117°38'1010.1
2017-Jan-20 10:34N 32°19' W 117°47'9 8.7
2017-Jan-20 09:31N 32°26' W 117°53'1010.4
2017-Jan-20 08:33N 32°36' W 117°49'1010.3
2017-Jan-20 07:33N 32°46' W 117°53'1110.7
2017-Jan-20 06:33N 32°56' W 117°57'1010.5
2017-Jan-20 05:33N 33°06' W 118°01'1010.0
2017-Jan-20 04:32N 33°15' W 118°05'1010.3
2017-Jan-20 03:33N 33°25' W 118°09'14 1.0
2017-Jan-19 12:30N 33°39' W 118°12'1212.1
2017-Jan-19 11:31N 33°28' W 118°06'1212.6
2017-Jan-19 10:33N 33°17' W 118°02'1312.8
2017-Jan-19 09:32N 33°04' W 117°56'1312.9
2017-Jan-19 08:33N 32°53' W 117°50'1313.3
2017-Jan-19 07:33N 32°40' W 117°46'1312.9
2017-Jan-19 06:33N 32°29' W 117°39'1713.0
2017-Jan-19 05:13N 32°14' W 117°28'93 4.1
2017-Jan-18 06:22N 31°05' W 118°40'10715.6
2017-Jan-17 23:30N 30°30' W 120°38'13816.2
2017-Jan-17 15:00N 29°54' W 123°12'63317.6 080 / 221023.810.8 22.319.324.3
2017-Jan-16 03:00N 26°54' W 134°42'25321.1 080 / 221023.810.8 22.319.324.3
2017-Jan-15 15:00N 26°00' W 139°18'18 6.0 080 / 221023.810.8 22.319.324.3
2017-Jan-15 12:00N 25°42' W 139°18'10225.4 130 / 251025.810.8 17.017.023.0
2017-Jan-15 08:00N 24°24' W 140°30'11322.6 130 / 251025.810.8 17.017.023.0
2017-Jan-15 03:00N 24°54' W 142°30'27418.3 130 / 251025.710.8 22.017.224.0
2017-Jan-14 12:00N 23°36' W 147°18'7017.6 130 / 351021.710.8 22.017.224.0
2017-Jan-14 08:00N 23°12' W 148°30'9719.4 130 / 101021.710.8 22.017.224.0
2017-Jan-14 03:00N 22°48' W 150°12'22618.9 130 / 101019.710.8 24.020.726.0
2017-Jan-13 15:00N 21°42' W 154°06'4615.4 130 / 101019.710.8 24.020.726.0
2017-Jan-13 12:00N 21°30' W 154°54'   130 / 101019.510.8 24.020.726.0

Dump ship's entire track history